createdAt,value
2023-08-23T00:00:32.378Z,17.07
2023-08-23T00:01:32.363Z,17.09
2023-08-23T00:02:32.377Z,17.07
2023-08-23T00:03:32.420Z,17.07
2023-08-23T00:04:32.292Z,17.06
2023-08-23T00:05:32.310Z,17.03
2023-08-23T00:06:32.289Z,17.05
2023-08-23T00:07:32.273Z,17.06
2023-08-23T00:08:32.255Z,17.07
2023-08-23T00:09:32.268Z,17.06
2023-08-23T00:10:32.244Z,17.03
2023-08-23T00:11:32.211Z,17.00
2023-08-23T00:12:32.220Z,16.96
2023-08-23T00:13:32.179Z,16.96
2023-08-23T00:14:32.234Z,16.99
2023-08-23T00:15:32.197Z,16.98
2023-08-23T00:16:32.870Z,16.96
2023-08-23T00:17:32.171Z,16.91
2023-08-23T00:18:32.168Z,16.88
2023-08-23T00:19:32.119Z,16.85
2023-08-23T00:20:32.121Z,16.84
2023-08-23T00:21:32.113Z,16.81
2023-08-23T00:22:32.105Z,16.81
2023-08-23T00:23:32.069Z,16.78
2023-08-23T00:24:32.074Z,16.78
2023-08-23T00:25:32.052Z,16.78
2023-08-23T00:26:32.062Z,16.75
2023-08-23T00:27:32.064Z,16.78
2023-08-23T00:28:32.013Z,16.81
2023-08-23T00:29:32.004Z,16.80
2023-08-23T00:30:32.038Z,16.80
2023-08-23T00:31:31.993Z,16.81
2023-08-23T00:32:32.006Z,16.81
2023-08-23T00:33:32.034Z,16.81
2023-08-23T00:34:31.937Z,16.82
2023-08-23T00:35:31.922Z,16.82
2023-08-23T00:36:31.961Z,16.82
2023-08-23T00:37:31.902Z,16.84
2023-08-23T00:38:31.901Z,16.87
2023-08-23T00:39:31.908Z,16.87
2023-08-23T00:40:31.867Z,16.85
2023-08-23T00:41:31.871Z,16.80
2023-08-23T00:42:31.862Z,16.81
2023-08-23T00:43:31.841Z,16.78
2023-08-23T00:44:31.834Z,16.73
2023-08-23T00:45:31.855Z,16.70
2023-08-23T00:46:31.887Z,16.63
2023-08-23T00:47:31.827Z,16.57
2023-08-23T00:48:31.804Z,16.55
2023-08-23T00:49:31.777Z,16.51
2023-08-23T00:50:31.755Z,16.51
2023-08-23T00:51:31.766Z,16.50
2023-08-23T00:52:39.465Z,16.52
2023-08-23T00:53:31.750Z,16.51
2023-08-23T00:54:31.714Z,16.50
2023-08-23T00:55:31.745Z,16.48
2023-08-23T00:56:31.687Z,16.47
2023-08-23T00:57:31.712Z,16.45
2023-08-23T00:58:31.702Z,16.42
2023-08-23T00:59:31.673Z,16.36
2023-08-23T01:00:31.643Z,16.30
2023-08-23T01:01:31.746Z,16.29
2023-08-23T01:02:31.671Z,16.27
2023-08-23T01:03:31.605Z,16.26
2023-08-23T01:04:31.648Z,16.27
2023-08-23T01:05:31.633Z,16.26
2023-08-23T01:06:31.594Z,16.25
2023-08-23T01:07:31.626Z,16.26
2023-08-23T01:08:31.582Z,16.26
2023-08-23T01:09:31.546Z,16.29
2023-08-23T01:10:31.568Z,16.30
2023-08-23T01:11:31.570Z,16.29
2023-08-23T01:12:31.519Z,16.29
2023-08-23T01:13:31.532Z,16.27
2023-08-23T01:14:31.499Z,16.27
2023-08-23T01:15:31.502Z,16.27
2023-08-23T01:16:31.511Z,16.29
2023-08-23T01:17:31.489Z,16.32
2023-08-23T01:18:31.481Z,16.36
2023-08-23T01:19:31.477Z,16.37
2023-08-23T01:20:31.448Z,16.34
2023-08-23T01:21:41.180Z,16.32
2023-08-23T01:22:31.428Z,16.33
2023-08-23T01:23:31.418Z,16.32
2023-08-23T01:24:31.424Z,16.30
2023-08-23T01:25:31.371Z,16.29
2023-08-23T01:26:31.389Z,16.29
2023-08-23T01:27:35.067Z,16.29
2023-08-23T01:28:31.384Z,16.26
2023-08-23T01:29:31.387Z,16.25
2023-08-23T01:30:31.340Z,16.23
2023-08-23T01:31:31.411Z,16.22
2023-08-23T01:32:31.307Z,16.22
2023-08-23T01:33:31.317Z,16.22
2023-08-23T01:34:31.339Z,16.23
2023-08-23T01:35:31.275Z,16.22
2023-08-23T01:36:31.265Z,16.23
2023-08-23T01:37:31.253Z,16.23
2023-08-23T01:38:31.249Z,16.23
2023-08-23T01:39:31.260Z,16.26
2023-08-23T01:40:38.797Z,16.27
2023-08-23T01:41:31.245Z,16.26
2023-08-23T01:42:41.305Z,16.23
2023-08-23T01:43:38.750Z,16.23
2023-08-23T01:44:39.801Z,16.22
2023-08-23T01:45:31.166Z,16.17
2023-08-23T01:46:40.043Z,16.16
2023-08-23T01:47:37.742Z,16.13
2023-08-23T01:48:38.669Z,16.14
2023-08-23T01:49:38.648Z,16.13
2023-08-23T01:50:31.152Z,16.14
2023-08-23T01:51:41.658Z,16.14
2023-08-23T01:52:37.613Z,16.14
2023-08-23T01:53:40.715Z,16.14
2023-08-23T01:54:39.629Z,16.11
2023-08-23T01:55:38.586Z,16.08
2023-08-23T01:56:40.307Z,16.07
2023-08-23T01:57:38.605Z,16.06
2023-08-23T01:58:39.803Z,16.04
2023-08-23T01:59:39.563Z,15.99
2023-08-23T02:00:31.027Z,15.99
2023-08-23T02:01:31.124Z,15.98
2023-08-23T02:02:31.043Z,15.95
2023-08-23T02:03:31.048Z,15.92
2023-08-23T02:04:30.957Z,15.91
2023-08-23T02:05:30.981Z,15.89
2023-08-23T02:06:30.995Z,15.92
2023-08-23T02:07:30.969Z,15.93
2023-08-23T02:08:30.912Z,15.92
2023-08-23T02:09:30.927Z,15.91
2023-08-23T02:10:30.927Z,15.89
2023-08-23T02:11:30.941Z,15.86
2023-08-23T02:12:30.912Z,15.86
2023-08-23T02:13:30.874Z,15.84
2023-08-23T02:14:30.866Z,15.84
2023-08-23T02:15:30.874Z,15.86
2023-08-23T02:16:30.887Z,15.86
2023-08-23T02:17:30.845Z,15.86
2023-08-23T02:18:30.804Z,15.86
2023-08-23T02:19:30.826Z,15.85
2023-08-23T02:20:30.805Z,15.84
2023-08-23T02:21:30.801Z,15.84
2023-08-23T02:22:30.756Z,15.81
2023-08-23T02:23:30.815Z,15.81
2023-08-23T02:24:30.751Z,15.78
2023-08-23T02:25:30.727Z,15.74
2023-08-23T02:26:30.748Z,15.70
2023-08-23T02:27:30.757Z,15.70
2023-08-23T02:28:30.708Z,15.67
2023-08-23T02:29:30.700Z,15.62
2023-08-23T02:30:30.707Z,15.60
2023-08-23T02:31:30.733Z,15.60
2023-08-23T02:32:30.703Z,15.58
2023-08-23T02:33:30.662Z,15.58
2023-08-23T02:34:30.664Z,15.58
2023-08-23T02:35:30.626Z,15.53
2023-08-23T02:36:30.641Z,15.52
2023-08-23T02:37:30.622Z,15.51
2023-08-23T02:38:30.612Z,15.49
2023-08-23T02:39:30.586Z,15.49
2023-08-23T02:40:30.579Z,15.49
2023-08-23T02:41:30.597Z,15.49
2023-08-23T02:42:30.578Z,15.41
2023-08-23T02:43:30.565Z,15.38
2023-08-23T02:44:30.535Z,15.37
2023-08-23T02:45:30.525Z,15.33
2023-08-23T02:46:30.525Z,15.34
2023-08-23T02:47:30.533Z,15.31
2023-08-23T02:48:30.593Z,15.33
2023-08-23T02:49:30.513Z,15.33
2023-08-23T02:50:30.499Z,15.33
2023-08-23T02:51:30.476Z,15.34
2023-08-23T02:52:30.468Z,15.33
2023-08-23T02:53:30.440Z,15.34
2023-08-23T02:54:30.450Z,15.33
2023-08-23T02:55:30.436Z,15.34
2023-08-23T02:56:30.408Z,15.35
2023-08-23T02:57:30.436Z,15.35
2023-08-23T02:58:30.407Z,15.37
2023-08-23T02:59:30.395Z,15.34
2023-08-23T03:00:30.372Z,15.33
2023-08-23T03:01:30.372Z,15.33
2023-08-23T03:02:30.362Z,15.31
2023-08-23T03:03:30.398Z,15.31
2023-08-23T03:04:30.326Z,15.28
2023-08-23T03:05:30.308Z,15.28
2023-08-23T03:06:30.314Z,15.23
2023-08-23T03:07:30.279Z,15.22
2023-08-23T03:08:30.287Z,15.22
2023-08-23T03:09:30.266Z,15.20
2023-08-23T03:10:30.249Z,15.19
2023-08-23T03:11:30.256Z,15.18
2023-08-23T03:12:30.217Z,15.13
2023-08-23T03:13:30.261Z,15.13
2023-08-23T03:14:30.202Z,15.15
2023-08-23T03:15:30.187Z,15.18
2023-08-23T03:16:30.250Z,15.16
2023-08-23T03:17:30.197Z,15.16
2023-08-23T03:18:30.180Z,15.15
2023-08-23T03:19:30.165Z,15.18
2023-08-23T03:20:30.138Z,15.16
2023-08-23T03:21:30.136Z,15.16
2023-08-23T03:22:30.130Z,15.16
2023-08-23T03:23:30.131Z,15.15
2023-08-23T03:24:30.080Z,15.11
2023-08-23T03:25:30.083Z,15.05
2023-08-23T03:26:30.085Z,15.01
2023-08-23T03:27:30.065Z,14.97
2023-08-23T03:28:30.049Z,14.94
2023-08-23T03:29:30.037Z,14.93
2023-08-23T03:30:30.055Z,14.91
2023-08-23T03:31:30.143Z,14.87
2023-08-23T03:32:29.998Z,14.87
2023-08-23T03:33:30.049Z,14.87
2023-08-23T03:34:30.026Z,14.91
2023-08-23T03:35:29.965Z,14.91
2023-08-23T03:36:30.011Z,14.91
2023-08-23T03:37:29.937Z,14.91
2023-08-23T03:38:29.966Z,14.91
2023-08-23T03:39:29.965Z,14.93
2023-08-23T03:40:29.942Z,14.91
2023-08-23T03:41:29.893Z,14.90
2023-08-23T03:42:29.918Z,14.87
2023-08-23T03:43:29.893Z,14.87
2023-08-23T03:44:30.112Z,14.86
2023-08-23T03:45:29.883Z,14.87
2023-08-23T03:46:29.924Z,14.87
2023-08-23T03:47:29.879Z,14.87
2023-08-23T03:48:29.864Z,14.90
2023-08-23T03:49:29.944Z,14.90
2023-08-23T03:50:29.807Z,14.90
2023-08-23T03:51:29.813Z,14.87
2023-08-23T03:52:29.794Z,14.90
2023-08-23T03:53:29.774Z,14.87
2023-08-23T03:54:29.773Z,14.90
2023-08-23T03:55:29.750Z,14.91
2023-08-23T03:56:29.754Z,14.91
2023-08-23T03:57:29.752Z,14.90
2023-08-23T03:58:29.752Z,14.93
2023-08-23T03:59:29.759Z,14.94
2023-08-23T04:00:29.699Z,14.93
2023-08-23T04:01:29.703Z,14.94
2023-08-23T04:02:29.696Z,14.91
2023-08-23T04:03:33.248Z,14.91
2023-08-23T04:04:29.726Z,14.91
2023-08-23T04:05:29.669Z,14.90
2023-08-23T04:06:29.632Z,14.90
2023-08-23T04:07:29.632Z,14.87
2023-08-23T04:08:29.628Z,14.85
2023-08-23T04:09:29.649Z,14.83
2023-08-23T04:10:29.597Z,14.83
2023-08-23T04:11:29.579Z,14.82
2023-08-23T04:12:29.573Z,14.85
2023-08-23T04:13:29.556Z,14.86
2023-08-23T04:14:29.606Z,14.82
2023-08-23T04:15:29.580Z,14.85
2023-08-23T04:16:29.607Z,14.86
2023-08-23T04:17:29.643Z,14.86
2023-08-23T04:18:29.547Z,14.85
2023-08-23T04:19:29.536Z,14.85
2023-08-23T04:20:29.554Z,14.80
2023-08-23T04:21:29.628Z,14.79
2023-08-23T04:22:29.550Z,14.75
2023-08-23T04:23:29.609Z,14.75
2023-08-23T04:24:29.551Z,14.78
2023-08-23T04:25:29.462Z,14.75
2023-08-23T04:26:29.488Z,14.74
2023-08-23T04:27:29.453Z,14.72
2023-08-23T04:28:29.423Z,14.72
2023-08-23T04:29:29.411Z,14.72
2023-08-23T04:30:29.460Z,14.74
2023-08-23T04:31:29.409Z,14.72
2023-08-23T04:32:29.453Z,14.74
2023-08-23T04:33:29.409Z,14.74
2023-08-23T04:34:29.374Z,14.72
2023-08-23T04:35:29.411Z,14.74
2023-08-23T04:36:29.364Z,14.71
2023-08-23T04:37:29.365Z,14.72
2023-08-23T04:38:29.355Z,14.71
2023-08-23T04:39:30.033Z,14.71
2023-08-23T04:40:29.332Z,14.71
2023-08-23T04:41:29.293Z,14.69
2023-08-23T04:42:29.308Z,14.71
2023-08-23T04:43:29.304Z,14.69
2023-08-23T04:44:29.265Z,14.67
2023-08-23T04:45:29.272Z,14.66
2023-08-23T04:46:29.278Z,14.64
2023-08-23T04:47:29.281Z,14.60
2023-08-23T04:48:29.224Z,14.59
2023-08-23T04:49:29.228Z,14.61
2023-08-23T04:50:29.225Z,14.61
2023-08-23T04:51:29.203Z,14.60
2023-08-23T04:52:29.198Z,14.61
2023-08-23T04:53:29.182Z,14.66
2023-08-23T04:54:29.159Z,14.66
2023-08-23T04:55:29.151Z,14.69
2023-08-23T04:56:29.169Z,14.71
2023-08-23T04:57:29.122Z,14.71
2023-08-23T04:58:29.139Z,14.72
2023-08-23T04:59:29.131Z,14.74
2023-08-23T05:00:29.335Z,14.75
2023-08-23T05:01:29.252Z,14.75
2023-08-23T05:02:29.142Z,14.78
2023-08-23T05:03:29.071Z,14.79
2023-08-23T05:04:29.074Z,14.78
2023-08-23T05:05:29.106Z,14.78
2023-08-23T05:06:29.100Z,14.80
2023-08-23T05:07:29.024Z,14.82
2023-08-23T05:08:29.032Z,14.79
2023-08-23T05:09:29.052Z,14.79
2023-08-23T05:10:29.028Z,14.80
2023-08-23T05:11:28.980Z,14.82
2023-08-23T05:12:29.024Z,14.85
2023-08-23T05:13:28.967Z,14.86
2023-08-23T05:14:28.965Z,14.87
2023-08-23T05:15:29.001Z,14.90
2023-08-23T05:16:28.938Z,14.93
2023-08-23T05:17:28.957Z,14.95
2023-08-23T05:18:28.944Z,15.00
2023-08-23T05:19:28.906Z,15.04
2023-08-23T05:20:28.913Z,15.05
2023-08-23T05:21:28.900Z,15.11
2023-08-23T05:22:28.930Z,15.16
2023-08-23T05:23:28.863Z,15.20
2023-08-23T05:24:28.873Z,15.25
2023-08-23T05:25:28.855Z,15.28
2023-08-23T05:26:28.864Z,15.33
2023-08-23T05:27:28.853Z,15.37
2023-08-23T05:28:28.823Z,15.41
2023-08-23T05:29:28.803Z,15.44
2023-08-23T05:30:28.791Z,15.44
2023-08-23T05:31:28.857Z,15.48
2023-08-23T05:32:28.801Z,15.53
2023-08-23T05:33:28.835Z,15.53
2023-08-23T05:34:28.760Z,15.55
2023-08-23T05:35:28.762Z,15.58
2023-08-23T05:36:28.754Z,15.60
2023-08-23T05:37:28.795Z,15.67
2023-08-23T05:38:28.739Z,15.67
2023-08-23T05:39:28.748Z,15.71
2023-08-23T05:40:28.715Z,15.74
2023-08-23T05:41:28.710Z,15.73
2023-08-23T05:42:28.688Z,15.70
2023-08-23T05:43:28.695Z,15.67
2023-08-23T05:44:28.657Z,15.67
2023-08-23T05:45:28.675Z,15.66
2023-08-23T05:46:28.638Z,15.64
2023-08-23T05:47:28.698Z,15.62
2023-08-23T05:48:28.639Z,15.62
2023-08-23T05:49:28.627Z,15.66
2023-08-23T05:50:28.596Z,15.70
2023-08-23T05:51:28.586Z,15.73
2023-08-23T05:52:28.589Z,15.77
2023-08-23T05:53:28.568Z,15.78
2023-08-23T05:54:28.529Z,15.84
2023-08-23T05:55:28.536Z,15.86
2023-08-23T05:56:28.511Z,15.86
2023-08-23T05:57:28.535Z,15.81
2023-08-23T05:58:28.515Z,15.78
2023-08-23T05:59:28.500Z,15.77
2023-08-23T06:00:28.494Z,15.78
2023-08-23T06:01:28.477Z,15.77
2023-08-23T06:02:28.473Z,15.78
2023-08-23T06:03:28.483Z,15.84
2023-08-23T06:04:28.449Z,15.81
2023-08-23T06:05:28.411Z,15.85
2023-08-23T06:06:28.417Z,15.81
2023-08-23T06:07:28.402Z,15.88
2023-08-23T06:08:28.393Z,15.91
2023-08-23T06:09:28.374Z,15.98
2023-08-23T06:10:28.374Z,16.04
2023-08-23T06:11:28.337Z,16.08
2023-08-23T06:12:28.350Z,16.16
2023-08-23T06:13:28.335Z,16.18
2023-08-23T06:14:28.341Z,16.16
2023-08-23T06:15:28.313Z,16.23
2023-08-23T06:16:28.381Z,16.25
2023-08-23T06:17:28.291Z,16.23
2023-08-23T06:18:28.352Z,16.29
2023-08-23T06:19:28.300Z,16.34
2023-08-23T06:20:28.300Z,16.40
2023-08-23T06:21:28.249Z,16.47
2023-08-23T06:22:28.234Z,16.52
2023-08-23T06:23:28.221Z,16.54
2023-08-23T06:24:28.205Z,16.55
2023-08-23T06:25:28.198Z,16.50
2023-08-23T06:26:28.183Z,16.54
2023-08-23T06:27:28.202Z,16.63
2023-08-23T06:28:28.162Z,16.73
2023-08-23T06:29:28.175Z,16.82
2023-08-23T06:30:28.185Z,16.92
2023-08-23T06:31:28.159Z,17.05
2023-08-23T06:32:28.121Z,17.14
2023-08-23T06:33:28.131Z,17.38
2023-08-23T06:34:28.107Z,17.62
2023-08-23T06:35:28.106Z,17.76
2023-08-23T06:36:28.096Z,17.94
2023-08-23T06:37:28.066Z,18.13
2023-08-23T06:38:28.091Z,18.19
2023-08-23T06:39:34.027Z,18.35
2023-08-23T06:40:28.047Z,18.49
2023-08-23T06:41:28.060Z,18.57
2023-08-23T06:42:28.090Z,18.69
2023-08-23T06:43:28.007Z,18.79
2023-08-23T06:44:28.000Z,18.76
2023-08-23T06:45:28.035Z,18.87
2023-08-23T06:46:28.035Z,18.90
2023-08-23T06:47:28.006Z,18.94
2023-08-23T06:48:27.971Z,18.97
2023-08-23T06:49:27.953Z,19.07
2023-08-23T06:50:28.043Z,19.12
2023-08-23T06:51:27.927Z,19.23
2023-08-23T06:52:27.930Z,19.21
2023-08-23T06:53:27.887Z,19.27
2023-08-23T06:54:27.957Z,19.42
2023-08-23T06:55:27.904Z,19.50
2023-08-23T06:56:27.892Z,19.68
2023-08-23T06:57:27.868Z,19.75
2023-08-23T06:58:27.880Z,19.79
2023-08-23T06:59:27.852Z,19.89
2023-08-23T07:00:27.834Z,19.95
2023-08-23T07:01:27.861Z,20.10
2023-08-23T07:02:27.845Z,19.98
2023-08-23T07:03:27.900Z,20.07
2023-08-23T07:04:27.961Z,20.15
2023-08-23T07:05:27.809Z,20.19
2023-08-23T07:06:27.781Z,20.35
2023-08-23T07:07:27.798Z,20.27
2023-08-23T07:08:27.753Z,20.02
2023-08-23T07:09:27.726Z,20.22
2023-08-23T07:10:28.957Z,20.41
2023-08-23T07:11:27.710Z,20.61
2023-08-23T07:12:27.689Z,20.60
2023-08-23T07:13:27.670Z,20.37
2023-08-23T07:14:27.683Z,20.57
2023-08-23T07:15:27.696Z,20.72
2023-08-23T07:16:27.664Z,20.72
2023-08-23T07:17:27.706Z,20.90
2023-08-23T07:18:27.612Z,21.01
2023-08-23T07:19:27.612Z,21.22
2023-08-23T07:20:27.613Z,21.19
2023-08-23T07:21:35.175Z,21.22
2023-08-23T07:22:27.564Z,21.24
2023-08-23T07:23:27.557Z,21.31
2023-08-23T07:24:29.124Z,21.31
2023-08-23T07:25:27.542Z,21.28
2023-08-23T07:26:27.552Z,21.30
2023-08-23T07:27:27.514Z,21.45
2023-08-23T07:28:27.508Z,21.43
2023-08-23T07:29:27.492Z,21.38
2023-08-23T07:30:27.526Z,21.42
2023-08-23T07:31:27.539Z,21.55
2023-08-23T07:32:27.484Z,21.70
2023-08-23T07:33:27.464Z,21.93
2023-08-23T07:34:27.440Z,22.08
2023-08-23T07:35:27.460Z,22.15
2023-08-23T07:36:29.918Z,22.23
2023-08-23T07:37:27.431Z,22.29
2023-08-23T07:38:27.398Z,22.42
2023-08-23T07:39:27.395Z,22.52
2023-08-23T07:40:27.382Z,22.42
2023-08-23T07:41:27.402Z,22.35
2023-08-23T07:42:27.354Z,22.20
2023-08-23T07:43:27.368Z,22.04
2023-08-23T07:44:27.337Z,22.06
2023-08-23T07:45:27.369Z,22.14
2023-08-23T07:46:27.413Z,22.24
2023-08-23T07:47:27.326Z,22.31
2023-08-23T07:48:27.290Z,22.35
2023-08-23T07:49:27.293Z,22.51
2023-08-23T07:50:27.281Z,22.57
2023-08-23T07:51:27.310Z,22.81
2023-08-23T07:52:27.258Z,22.93
2023-08-23T07:53:27.258Z,22.84
2023-08-23T07:54:27.232Z,22.72
2023-08-23T07:55:27.342Z,22.70
2023-08-23T07:56:27.223Z,22.67
2023-08-23T07:57:27.228Z,22.81
2023-08-23T07:58:27.193Z,22.84
2023-08-23T07:59:27.209Z,22.99
2023-08-23T08:00:27.194Z,23.07
2023-08-23T08:01:27.207Z,23.14
2023-08-23T08:02:27.191Z,23.23
2023-08-23T08:03:27.202Z,23.34
2023-08-23T08:04:27.127Z,23.62
2023-08-23T08:05:27.143Z,23.79
2023-08-23T08:06:27.118Z,23.79
2023-08-23T08:08:27.094Z,24.08
2023-08-23T08:09:27.082Z,24.26
2023-08-23T08:10:27.073Z,24.21
2023-08-23T08:11:27.079Z,24.12
2023-08-23T08:12:27.064Z,24.12
2023-08-23T08:13:27.041Z,24.15
2023-08-23T08:14:27.029Z,24.19
2023-08-23T08:15:27.125Z,24.21
2023-08-23T08:16:27.129Z,24.29
2023-08-23T08:17:27.035Z,24.37
2023-08-23T08:18:26.983Z,24.34
2023-08-23T08:19:26.964Z,24.39
2023-08-23T08:20:26.963Z,24.49
2023-08-23T08:21:26.991Z,24.53
2023-08-23T08:22:26.956Z,24.49
2023-08-23T08:23:26.944Z,24.56
2023-08-23T08:24:26.915Z,24.60
2023-08-23T08:25:26.990Z,24.71
2023-08-23T08:26:26.898Z,24.71
2023-08-23T08:27:26.898Z,24.77
2023-08-23T08:28:26.866Z,24.66
2023-08-23T08:29:26.869Z,24.64
2023-08-23T08:30:26.851Z,24.56
2023-08-23T08:31:26.892Z,24.71
2023-08-23T08:32:26.917Z,24.83
2023-08-23T08:33:26.863Z,24.86
2023-08-23T08:34:26.811Z,24.84
2023-08-23T08:35:26.846Z,24.71
2023-08-23T08:36:26.795Z,24.59
2023-08-23T08:37:26.797Z,24.49
2023-08-23T08:38:26.794Z,24.66
2023-08-23T08:39:26.765Z,24.86
2023-08-23T08:40:26.753Z,24.89
2023-08-23T08:41:26.737Z,24.83
2023-08-23T08:42:26.724Z,24.92
2023-08-23T08:43:26.744Z,25.09
2023-08-23T08:44:26.705Z,25.26
2023-08-23T08:45:26.690Z,25.44
2023-08-23T08:46:26.758Z,25.31
2023-08-23T08:47:26.821Z,25.45
2023-08-23T08:48:26.667Z,25.38
2023-08-23T08:49:26.650Z,25.49
2023-08-23T08:50:26.633Z,25.64
2023-08-23T08:51:26.638Z,25.63
2023-08-23T08:52:26.613Z,25.72
2023-08-23T08:53:26.631Z,25.71
2023-08-23T08:54:26.600Z,25.60
2023-08-23T08:55:26.598Z,25.66
2023-08-23T08:56:27.190Z,25.69
2023-08-23T08:57:26.575Z,25.82
2023-08-23T08:58:26.568Z,26.11
2023-08-23T08:59:26.561Z,26.39
2023-08-23T09:00:26.599Z,26.42
2023-08-23T09:01:26.594Z,26.44
2023-08-23T09:02:26.516Z,26.50
2023-08-23T09:03:26.644Z,26.50
2023-08-23T09:04:26.516Z,26.59
2023-08-23T09:05:26.514Z,26.79
2023-08-23T09:06:26.463Z,26.87
2023-08-23T09:07:26.452Z,26.76
2023-08-23T09:08:26.473Z,26.69
2023-08-23T09:09:26.500Z,26.51
2023-08-23T09:10:26.419Z,26.46
2023-08-23T09:11:26.451Z,26.44
2023-08-23T09:12:26.417Z,26.49
2023-08-23T09:13:26.417Z,26.27
2023-08-23T09:14:26.421Z,26.24
2023-08-23T09:15:26.380Z,26.11
2023-08-23T09:16:26.389Z,25.76
2023-08-23T09:17:26.405Z,25.89
2023-08-23T09:18:26.336Z,26.01
2023-08-23T09:19:26.361Z,26.08
2023-08-23T09:20:26.341Z,26.11
2023-08-23T09:21:26.323Z,26.06
2023-08-23T09:22:26.312Z,26.04
2023-08-23T09:23:26.297Z,26.13
2023-08-23T09:24:26.297Z,26.31
2023-08-23T09:25:26.293Z,26.46
2023-08-23T09:26:26.275Z,26.64
2023-08-23T09:27:36.764Z,26.81
2023-08-23T09:28:26.237Z,26.64
2023-08-23T09:29:26.247Z,26.46
2023-08-23T09:30:26.244Z,26.34
2023-08-23T09:31:26.365Z,26.24
2023-08-23T09:32:26.222Z,26.24
2023-08-23T09:33:26.242Z,26.21
2023-08-23T09:34:26.188Z,26.34
2023-08-23T09:35:26.197Z,26.51
2023-08-23T09:36:26.148Z,26.46
2023-08-23T09:37:26.144Z,26.50
2023-08-23T09:38:26.134Z,26.51
2023-08-23T09:39:26.144Z,26.41
2023-08-23T09:40:26.155Z,26.41
2023-08-23T09:41:26.119Z,26.32
2023-08-23T09:42:26.087Z,26.24
2023-08-23T09:43:26.085Z,26.49
2023-08-23T09:44:26.078Z,26.60
2023-08-23T09:45:26.064Z,26.84
2023-08-23T09:46:26.285Z,26.94
2023-08-23T09:47:26.090Z,27.08
2023-08-23T09:48:26.104Z,27.30
2023-08-23T09:49:26.030Z,27.39
2023-08-23T09:50:26.017Z,27.48
2023-08-23T09:51:26.045Z,27.68
2023-08-23T09:52:25.979Z,27.68
2023-08-23T09:53:26.007Z,27.46
2023-08-23T09:54:40.474Z,27.18
2023-08-23T09:55:25.952Z,27.09
2023-08-23T09:56:26.009Z,27.18
2023-08-23T09:57:25.965Z,27.33
2023-08-23T09:58:25.937Z,27.49
2023-08-23T09:59:25.931Z,27.72
2023-08-23T10:00:25.904Z,27.93
2023-08-23T10:01:33.120Z,27.96
2023-08-23T10:02:26.013Z,28.14
2023-08-23T10:03:25.881Z,28.27
2023-08-23T10:04:25.859Z,28.27
2023-08-23T10:05:27.885Z,28.35
2023-08-23T10:06:25.833Z,28.28
2023-08-23T10:07:25.822Z,28.32
2023-08-23T10:08:25.838Z,28.45
2023-08-23T10:09:25.802Z,28.50
2023-08-23T10:10:25.801Z,28.40
2023-08-23T10:11:26.071Z,28.35
2023-08-23T10:12:25.769Z,28.40
2023-08-23T10:13:25.841Z,28.50
2023-08-23T10:14:25.757Z,28.51
2023-08-23T10:15:25.753Z,28.65
2023-08-23T10:16:25.797Z,28.85
2023-08-23T10:17:26.655Z,28.97
2023-08-23T10:18:25.726Z,29.00
2023-08-23T10:19:25.705Z,28.91
2023-08-23T10:20:25.714Z,28.70
2023-08-23T10:21:25.688Z,28.62
2023-08-23T10:22:25.666Z,28.46
2023-08-23T10:23:25.715Z,28.45
2023-08-23T10:24:25.662Z,28.57
2023-08-23T10:25:25.642Z,28.72
2023-08-23T10:26:25.644Z,28.61
2023-08-23T10:27:25.625Z,28.62
2023-08-23T10:28:25.617Z,28.51
2023-08-23T10:29:25.627Z,28.35
2023-08-23T10:30:25.645Z,28.51
2023-08-23T10:31:25.595Z,28.72
2023-08-23T10:32:25.576Z,28.91
2023-08-23T10:33:25.612Z,29.14
2023-08-23T10:34:25.582Z,29.35
2023-08-23T10:35:25.551Z,29.14
2023-08-23T10:36:25.550Z,28.89
2023-08-23T10:37:25.513Z,28.88
2023-08-23T10:38:25.534Z,29.05
2023-08-23T10:39:25.496Z,29.08
2023-08-23T10:40:25.516Z,29.00
2023-08-23T10:41:25.472Z,28.77
2023-08-23T10:42:25.465Z,28.52
2023-08-23T10:43:25.447Z,28.50
2023-08-23T10:44:25.448Z,28.51
2023-08-23T10:45:25.501Z,28.48
2023-08-23T10:46:25.438Z,28.51
2023-08-23T10:47:25.458Z,28.58
2023-08-23T10:48:25.399Z,28.55
2023-08-23T10:49:25.395Z,28.39
2023-08-23T10:50:25.409Z,28.60
2023-08-23T10:51:25.369Z,28.69
2023-08-23T10:52:25.353Z,28.72
2023-08-23T10:53:28.041Z,28.74
2023-08-23T10:54:25.335Z,28.70
2023-08-23T10:55:25.332Z,28.77
2023-08-23T10:56:25.336Z,28.69
2023-08-23T10:57:25.303Z,28.70
2023-08-23T10:58:25.295Z,28.74
2023-08-23T10:59:25.279Z,28.82
2023-08-23T11:00:25.280Z,28.57
2023-08-23T11:01:25.331Z,28.62
2023-08-23T11:02:25.367Z,28.55
2023-08-23T11:03:25.244Z,28.58
2023-08-23T11:04:25.225Z,28.69
2023-08-23T11:05:25.240Z,28.87
2023-08-23T11:06:25.225Z,28.85
2023-08-23T11:07:25.188Z,28.94
2023-08-23T11:08:25.274Z,29.03
2023-08-23T11:09:25.168Z,29.25
2023-08-23T11:10:26.155Z,29.51
2023-08-23T11:11:25.225Z,29.69
2023-08-23T11:12:25.167Z,29.70
2023-08-23T11:13:25.149Z,29.63
2023-08-23T11:14:25.148Z,29.30
2023-08-23T11:15:25.113Z,29.15
2023-08-23T11:16:25.166Z,28.87
2023-08-23T11:17:25.121Z,28.82
2023-08-23T11:18:25.109Z,28.79
2023-08-23T11:19:25.070Z,28.69
2023-08-23T11:20:25.074Z,28.76
2023-08-23T11:21:25.077Z,28.85
2023-08-23T11:22:25.046Z,28.74
2023-08-23T11:23:25.043Z,28.69
2023-08-23T11:24:25.022Z,28.82
2023-08-23T11:25:25.052Z,28.80
2023-08-23T11:26:25.007Z,28.88
2023-08-23T11:27:25.032Z,28.89
2023-08-23T11:28:24.989Z,28.87
2023-08-23T11:29:24.982Z,28.95
2023-08-23T11:30:24.957Z,28.98
2023-08-23T11:31:24.979Z,29.18
2023-08-23T11:32:24.983Z,29.32
2023-08-23T11:33:24.956Z,29.30
2023-08-23T11:34:24.938Z,29.39
2023-08-23T11:35:24.926Z,29.36
2023-08-23T11:36:24.903Z,29.32
2023-08-23T11:37:24.974Z,29.17
2023-08-23T11:38:24.893Z,29.17
2023-08-23T11:39:24.865Z,29.17
2023-08-23T11:40:24.878Z,29.21
2023-08-23T11:41:24.853Z,29.44
2023-08-23T11:42:24.858Z,29.58
2023-08-23T11:43:24.824Z,29.73
2023-08-23T11:44:24.823Z,29.66
2023-08-23T11:45:24.804Z,29.57
2023-08-23T11:46:25.500Z,29.47
2023-08-23T11:47:24.819Z,29.37
2023-08-23T11:48:24.914Z,29.27
2023-08-23T11:49:24.777Z,29.23
2023-08-23T11:50:24.770Z,29.14
2023-08-23T11:51:24.742Z,29.08
2023-08-23T11:52:24.766Z,29.14
2023-08-23T11:53:24.753Z,29.21
2023-08-23T11:54:24.712Z,29.39
2023-08-23T11:55:24.731Z,29.64
2023-08-23T11:56:24.715Z,29.49
2023-08-23T11:57:24.680Z,29.64
2023-08-23T11:58:24.703Z,29.66
2023-08-23T11:59:24.684Z,29.64
2023-08-23T12:00:24.654Z,29.54
2023-08-23T12:01:24.776Z,29.26
2023-08-23T12:02:24.675Z,28.98
2023-08-23T12:03:24.708Z,28.82
2023-08-23T12:04:24.631Z,28.55
2023-08-23T12:05:24.612Z,28.51
2023-08-23T12:06:24.589Z,28.69
2023-08-23T12:07:24.580Z,28.83
2023-08-23T12:08:24.603Z,29.14
2023-08-23T12:09:24.557Z,29.20
2023-08-23T12:10:24.572Z,29.21
2023-08-23T12:11:24.541Z,29.07
2023-08-23T12:12:24.541Z,28.88
2023-08-23T12:13:24.544Z,28.65
2023-08-23T12:14:24.521Z,28.42
2023-08-23T12:15:24.497Z,28.40
2023-08-23T12:16:24.529Z,28.40
2023-08-23T12:17:24.491Z,28.40
2023-08-23T12:18:24.543Z,28.45
2023-08-23T12:19:31.601Z,28.40
2023-08-23T12:20:24.461Z,28.25
2023-08-23T12:21:24.432Z,28.13
2023-08-23T12:22:24.430Z,28.17
2023-08-23T12:23:24.484Z,28.20
2023-08-23T12:24:24.422Z,28.15
2023-08-23T12:25:24.391Z,28.24
2023-08-23T12:26:24.403Z,28.33
2023-08-23T12:27:24.371Z,28.46
2023-08-23T12:28:24.366Z,28.58
2023-08-23T12:29:24.369Z,28.57
2023-08-23T12:30:24.349Z,28.61
2023-08-23T12:31:24.410Z,28.58
2023-08-23T12:32:24.333Z,28.60
2023-08-23T12:33:24.320Z,28.67
2023-08-23T12:34:24.325Z,28.67
2023-08-23T12:35:24.295Z,28.69
2023-08-23T12:36:24.287Z,28.79
2023-08-23T12:37:24.270Z,28.91
2023-08-23T12:38:24.269Z,29.10
2023-08-23T12:39:24.997Z,29.02
2023-08-23T12:40:24.245Z,28.83
2023-08-23T12:41:24.238Z,28.82
2023-08-23T12:42:24.230Z,28.73
2023-08-23T12:43:24.245Z,28.80
2023-08-23T12:44:24.228Z,28.91
2023-08-23T12:45:24.209Z,28.98
2023-08-23T12:46:24.191Z,28.82
2023-08-23T12:47:24.187Z,28.70
2023-08-23T12:48:24.160Z,28.62
2023-08-23T12:49:24.166Z,28.65
2023-08-23T12:50:24.178Z,28.77
2023-08-23T12:51:24.131Z,28.76
2023-08-23T12:52:24.126Z,28.74
2023-08-23T12:53:24.120Z,28.88